Time;durP1;ratioP1;P1;durP2;ratioP2;P2;SDS_P1;SDS_P2;PMS_P1;PMS_P2;Temp;Humidity;BMP_temperature;BMP_pressure;BME280_temperature;BME280_humidity;BME280_pressure;Samples;Min_cycle;Max_cycle;Signal;HPM_P1;HPM_P2
2022/11/18 00:00:18;;;;;;;;;;;12.00;94.50;;;;;;5094731;28;19942;-93
2022/11/18 00:02:44;;;;;;;;;;;11.90;94.60;;;;;;5095224;28;20412;-92
2022/11/18 00:05:10;;;;;;;;;;;11.90;94.70;;;;;;5094773;28;19959;-93
2022/11/18 00:07:35;;;;;;;;;;;11.90;95.00;;;;;;5095741;28;20004;-93
2022/11/18 00:10:01;;;;;;;;;;;11.90;95.00;;;;;;5096175;28;19943;-93
2022/11/18 00:15:10;;;;;;;;;;;12.00;95.00;;;;;;5095471;28;19948;-93
2022/11/18 00:17:36;;;;;;;;;;;12.00;95.00;;;;;;5111651;28;19960;-93
2022/11/18 00:20:02;;;;;;;;;;;11.90;95.00;;;;;;5094823;28;19942;-93
2022/11/18 00:22:28;;;;;;;;;;;11.90;95.00;;;;;;5095206;28;19936;-93
2022/11/18 00:24:53;;;;;;;;;;;11.90;95.10;;;;;;5094513;28;19976;-93
2022/11/18 00:27:19;;;;;;;;;;;11.90;95.20;;;;;;5094295;28;19956;-93
2022/11/18 00:29:45;;;;;;;;;;;11.90;95.30;;;;;;5093668;28;20033;-93
2022/11/18 00:32:10;;;;;;;;;;;11.90;95.30;;;;;;5094123;28;19942;-93
2022/11/18 00:34:41;;;;;;;;;;;11.90;95.30;;;;;;5095197;28;19942;-93
2022/11/18 00:37:06;;;;;;;;;;;11.90;95.40;;;;;;5094654;28;19949;-93
2022/11/18 00:39:32;;;;;;;;;;;12.00;95.40;;;;;;5110561;28;19997;-93
2022/11/18 00:44:42;;;;;;;;;;;11.90;95.30;;;;;;5094422;28;19971;-92
2022/11/18 00:47:08;;;;;;;;;;;11.90;95.30;;;;;;5094025;28;19940;-92
2022/11/18 00:49:34;;;;;;;;;;;12.00;95.20;;;;;;5094512;28;20003;-92
2022/11/18 00:52:00;;;;;;;;;;;11.90;95.20;;;;;;5091490;28;20036;-93
2022/11/18 00:54:25;;;;;;;;;;;12.00;95.20;;;;;;5092253;28;19975;-92
2022/11/18 00:56:51;;;;;;;;;;;12.00;95.30;;;;;;5092450;28;19965;-92
2022/11/18 00:59:17;;;;;;;;;;;12.10;95.20;;;;;;5092949;28;20034;-92
2022/11/18 01:01:42;;;;;;;;;;;12.00;95.10;;;;;;5092986;28;19944;-92
2022/11/18 01:04:08;;;;;;;;;;;12.00;95.10;;;;;;5089659;28;20071;-92
2022/11/18 01:06:34;;;;;;;;;;;12.00;95.10;;;;;;5094008;28;19979;-93
2022/11/18 01:08:59;;;;;;;;;;;12.00;95.00;;;;;;5093556;28;19936;-93
2022/11/18 01:14:09;;;;;;;;;;;12.10;95.10;;;;;;5095137;28;19948;-91
2022/11/18 01:16:35;;;;;;;;;;;12.10;95.00;;;;;;5094543;28;19934;-92
2022/11/18 01:19:00;;;;;;;;;;;12.00;95.00;;;;;;5094080;28;19962;-92
2022/11/18 01:21:27;;;;;;;;;;;12.00;95.00;;;;;;5094595;28;20003;-92
2022/11/18 01:23:53;;;;;;;;;;;12.00;95.00;;;;;;5094070;28;20010;-92
2022/11/18 01:26:19;;;;;;;;;;;12.00;95.10;;;;;;5094788;28;20472;-93
2022/11/18 01:28:44;;;;;;;;;;;11.90;95.20;;;;;;5094587;28;19933;-92
2022/11/18 01:31:12;;;;;;;;;;;11.90;95.30;;;;;;5094198;28;19965;-92
2022/11/18 01:33:38;;;;;;;;;;;12.00;95.30;;;;;;5092760;28;19964;-92
2022/11/18 01:36:04;;;;;;;;;;;12.00;95.30;;;;;;5094533;28;19959;-92
2022/11/18 01:38:29;;;;;;;;;;;12.00;95.40;;;;;;5096398;28;19965;-93
2022/11/18 01:40:55;;;;;;;;;;;11.90;95.40;;;;;;5097658;28;19947;-93
2022/11/18 01:43:22;;;;;;;;;;;11.90;95.50;;;;;;5097703;28;19940;-92
2022/11/18 01:45:52;;;;;;;;;;;11.90;95.50;;;;;;5097454;28;19945;-92
2022/11/18 01:48:24;;;;;;;;;;;12.00;95.50;;;;;;5097084;28;19938;-93
2022/11/18 01:50:53;;;;;;;;;;;12.00;95.50;;;;;;5097460;28;19983;-92
2022/11/18 01:53:24;;;;;;;;;;;12.00;95.40;;;;;;5097892;28;19922;-93
2022/11/18 01:55:51;;;;;;;;;;;12.10;95.30;;;;;;5097409;28;19970;-93
2022/11/18 01:58:26;;;;;;;;;;;12.10;95.20;;;;;;5097591;28;19965;-92
2022/11/18 02:00:52;;;;;;;;;;;12.10;95.10;;;;;;5097427;28;19938;-93
2022/11/18 02:03:17;;;;;;;;;;;12.00;95.10;;;;;;5096613;28;19940;-92
2022/11/18 02:05:45;;;;;;;;;;;12.00;95.20;;;;;;5096590;28;19973;-92
2022/11/18 02:08:12;;;;;;;;;;;11.90;95.20;;;;;;5097559;28;19951;-92
2022/11/18 02:10:37;;;;;;;;;;;11.90;95.40;;;;;;5095781;28;19935;-92
2022/11/18 02:13:03;;;;;;;;;;;11.90;95.40;;;;;;5095876;28;19965;-92
2022/11/18 02:15:49;;;;;;;;;;;11.90;95.40;;;;;;5096845;28;19962;-92
2022/11/18 02:18:27;;;;;;;;;;;12.10;95.40;;;;;;5096060;28;19964;-92
2022/11/18 02:21:03;;;;;;;;;;;12.10;95.30;;;;;;5097055;28;19938;-92
2022/11/18 02:23:42;;;;;;;;;;;12.10;95.20;;;;;;5096733;28;19936;-91
2022/11/18 02:26:26;;;;;;;;;;;12.10;95.10;;;;;;5097103;28;19939;-91
2022/11/18 02:29:05;;;;;;;;;;;12.10;94.90;;;;;;5096659;28;19947;-92
2022/11/18 02:31:33;;;;;;;;;;;12.10;94.90;;;;;;5096387;28;19967;-92
2022/11/18 02:34:23;;;;;;;;;;;12.10;94.90;;;;;;5096629;28;19940;-93
2022/11/18 02:37:11;;;;;;;;;;;12.10;94.90;;;;;;5096374;28;20005;-92
2022/11/18 02:39:39;;;;;;;;;;;12.10;95.00;;;;;;5096392;28;19946;-92
2022/11/18 02:42:07;;;;;;;;;;;12.10;95.00;;;;;;5096579;28;19936;-93
2022/11/18 02:44:34;;;;;;;;;;;12.00;95.10;;;;;;5096329;28;20011;-92
2022/11/18 02:47:01;;;;;;;;;;;12.00;95.10;;;;;;5096057;28;19943;-93
2022/11/18 02:49:33;;;;;;;;;;;12.00;95.20;;;;;;5110889;28;19942;-93
2022/11/18 02:52:00;;;;;;;;;;;12.10;95.30;;;;;;5096090;28;19975;-92
2022/11/18 02:54:27;;;;;;;;;;;12.10;95.20;;;;;;5096159;28;19941;-92
2022/11/18 02:56:52;;;;;;;;;;;12.10;95.10;;;;;;5096854;28;19947;-93
2022/11/18 02:59:19;;;;;;;;;;;12.10;95.20;;;;;;5094943;28;19972;-92
2022/11/18 03:01:44;;;;;;;;;;;12.10;95.10;;;;;;5096145;28;19930;-92
2022/11/18 03:04:11;;;;;;;;;;;12.20;95.00;;;;;;5095502;28;20420;-93
2022/11/18 03:06:38;;;;;;;;;;;12.10;94.80;;;;;;5096004;28;19934;-92
2022/11/18 03:09:07;;;;;;;;;;;12.10;94.80;;;;;;5096148;28;19940;-92
2022/11/18 03:11:44;;;;;;;;;;;12.10;94.70;;;;;;5095878;28;20035;-92
2022/11/18 03:14:15;;;;;;;;;;;12.10;94.70;;;;;;5095204;28;19938;-92
2022/11/18 03:16:55;;;;;;;;;;;12.10;94.80;;;;;;5094057;28;19996;-92
2022/11/18 03:19:31;;;;;;;;;;;12.10;94.80;;;;;;5094824;28;19942;-92
2022/11/18 03:21:59;;;;;;;;;;;12.10;94.80;;;;;;5095076;28;20409;-92
2022/11/18 03:24:28;;;;;;;;;;;12.00;94.90;;;;;;5093582;28;19950;-93
2022/11/18 03:26:59;;;;;;;;;;;12.00;95.00;;;;;;5094101;28;19941;-92
2022/11/18 03:29:29;;;;;;;;;;;12.00;94.90;;;;;;5094920;28;20006;-92
2022/11/18 03:32:01;;;;;;;;;;;12.00;95.00;;;;;;5094887;28;20051;-92
2022/11/18 03:34:29;;;;;;;;;;;12.00;94.80;;;;;;5094480;28;19938;-92
2022/11/18 03:37:00;;;;;;;;;;;11.90;94.70;;;;;;5079530;28;19938;-92
2022/11/18 03:39:26;;;;;;;;;;;11.90;94.80;;;;;;5077211;28;19949;-92
2022/11/18 03:41:54;;;;;;;;;;;11.90;94.80;;;;;;5076983;28;19940;-93
2022/11/18 03:44:22;;;;;;;;;;;11.90;94.90;;;;;;5078295;28;19935;-92
2022/11/18 03:46:50;;;;;;;;;;;11.90;94.90;;;;;;5082604;28;20283;-92
2022/11/18 03:49:18;;;;;;;;;;;11.80;95.00;;;;;;5081915;28;19949;-92
2022/11/18 03:51:47;;;;;;;;;;;11.80;95.00;;;;;;5079595;28;19981;-92
2022/11/18 03:54:15;;;;;;;;;;;11.80;95.00;;;;;;5085073;28;19938;-93
2022/11/18 03:56:43;;;;;;;;;;;11.80;95.10;;;;;;5073063;28;20313;-93
2022/11/18 03:59:19;;;;;;;;;;;11.80;95.10;;;;;;5074336;28;20020;-92
2022/11/18 04:01:53;;;;;;;;;;;11.70;95.20;;;;;;5076076;28;20275;-93
2022/11/18 04:04:19;;;;;;;;;;;11.70;95.30;;;;;;5079796;28;19948;-92
2022/11/18 04:06:47;;;;;;;;;;;11.70;95.30;;;;;;5076887;28;19941;-92
2022/11/18 04:09:17;;;;;;;;;;;11.70;95.40;;;;;;5091814;28;20016;-93
2022/11/18 04:12:02;;;;;;;;;;;11.70;95.60;;;;;;5094513;28;19981;-93
2022/11/18 04:14:37;;;;;;;;;;;11.70;95.60;;;;;;5092645;28;20012;-92
2022/11/18 04:17:10;;;;;;;;;;;11.80;95.60;;;;;;5073830;28;19935;-93
2022/11/18 04:19:36;;;;;;;;;;;11.90;95.50;;;;;;5073798;28;19996;-92
2022/11/18 04:22:01;;;;;;;;;;;11.90;95.50;;;;;;5073751;28;19944;-92
2022/11/18 04:24:27;;;;;;;;;;;11.90;95.40;;;;;;5073661;28;19945;-92
2022/11/18 04:26:53;;;;;;;;;;;12.00;95.30;;;;;;5073726;28;19944;-93
2022/11/18 04:29:18;;;;;;;;;;;12.00;95.30;;;;;;5073906;28;19944;-93
2022/11/18 04:31:44;;;;;;;;;;;11.90;95.30;;;;;;5073633;28;20288;-93
2022/11/18 04:34:09;;;;;;;;;;;12.00;95.30;;;;;;5073558;28;19944;-93
2022/11/18 04:36:35;;;;;;;;;;;12.00;95.20;;;;;;5073582;28;19946;-93
2022/11/18 04:39:00;;;;;;;;;;;11.90;95.20;;;;;;5073417;28;19975;-93
2022/11/18 04:41:54;;;;;;;;;;;11.90;95.20;;;;;;5073488;28;19989;-93
2022/11/18 04:44:14;;;;;;;;;;;11.80;95.10;;;;;;5073392;28;19943;-93
2022/11/18 04:46:40;;;;;;;;;;;11.80;95.20;;;;;;5073456;28;19990;-94
2022/11/18 04:49:06;;;;;;;;;;;11.70;95.40;;;;;;5073356;28;20036;-93
2022/11/18 04:51:32;;;;;;;;;;;11.80;95.40;;;;;;5073173;28;19978;-93
2022/11/18 04:53:57;;;;;;;;;;;11.80;95.30;;;;;;5073284;28;20287;-92
2022/11/18 04:56:23;;;;;;;;;;;11.90;95.30;;;;;;5073420;28;20401;-93
2022/11/18 04:58:48;;;;;;;;;;;11.80;95.20;;;;;;5073770;28;19963;-93
2022/11/18 05:01:14;;;;;;;;;;;11.80;95.20;;;;;;5073294;28;20305;-93
2022/11/18 05:03:39;;;;;;;;;;;11.80;95.10;;;;;;5073128;28;20309;-93
2022/11/18 05:06:05;;;;;;;;;;;11.80;95.00;;;;;;5073152;28;19950;-93
2022/11/18 05:08:30;;;;;;;;;;;11.70;94.90;;;;;;5073187;28;19941;-92
2022/11/18 05:12:47;;;;;;;;;;;11.70;94.90;;;;;;5072696;28;20317;-93
2022/11/18 05:13:41;;;;;;;;;;;11.60;94.80;;;;;;5073101;28;20396;-93
2022/11/18 05:16:07;;;;;;;;;;;11.40;95.00;;;;;;5073084;28;19948;-93
2022/11/18 05:18:32;;;;;;;;;;;11.40;95.30;;;;;;5072959;28;19963;-92
2022/11/18 05:20:58;;;;;;;;;;;11.40;95.40;;;;;;5072979;28;19939;-93
2022/11/18 05:23:23;;;;;;;;;;;11.40;95.50;;;;;;5073105;28;20032;-93
2022/11/18 05:25:49;;;;;;;;;;;11.40;95.60;;;;;;5073032;28;19947;-93
2022/11/18 05:28:14;;;;;;;;;;;11.30;95.70;;;;;;5072959;28;19936;-92
2022/11/18 05:30:40;;;;;;;;;;;11.30;95.80;;;;;;5072704;28;19974;-93
2022/11/18 05:33:06;;;;;;;;;;;11.20;96.00;;;;;;5072431;28;19941;-92
2022/11/18 05:35:31;;;;;;;;;;;11.10;96.50;;;;;;5072952;28;19942;-92
2022/11/18 05:37:57;;;;;;;;;;;11.20;96.50;;;;;;5072803;28;19959;-92
2022/11/18 05:40:22;;;;;;;;;;;11.10;96.30;;;;;;5072883;28;19938;-92
2022/11/18 05:45:32;;;;;;;;;;;11.10;96.20;;;;;;5072911;28;19988;-93
2022/11/18 05:48:00;;;;;;;;;;;11.10;96.20;;;;;;5072760;28;19942;-93
2022/11/18 05:50:25;;;;;;;;;;;11.10;96.20;;;;;;5072506;28;20039;-92
2022/11/18 05:52:51;;;;;;;;;;;11.00;96.20;;;;;;5297159;23;19974;-89
2022/11/18 05:55:18;;;;;;;;;;;11.00;96.30;;;;;;5051540;28;19945;-89
2022/11/18 05:57:43;;;;;;;;;;;10.90;96.30;;;;;;5052234;28;21175;-89
2022/11/18 06:00:09;;;;;;;;;;;10.90;96.50;;;;;;5051765;28;20026;-90
2022/11/18 06:02:35;;;;;;;;;;;10.90;96.60;;;;;;5052160;28;20362;-89
2022/11/18 06:05:02;;;;;;;;;;;11.00;96.70;;;;;;5052323;28;19972;-89
2022/11/18 06:07:48;;;;;;;;;;;11.00;96.90;;;;;;5042984;28;19989;-89
2022/11/18 06:10:19;;;;;;;;;;;11.00;97.00;;;;;;5050198;28;19947;-90
2022/11/18 06:12:45;;;;;;;;;;;11.00;97.10;;;;;;5052409;28;19941;-89
2022/11/18 06:15:18;;;;;;;;;;;11.10;97.00;;;;;;5051929;28;20013;-90
2022/11/18 06:17:53;;;;;;;;;;;11.00;97.20;;;;;;5051965;28;19992;-90
2022/11/18 06:20:19;;;;;;;;;;;11.10;97.30;;;;;;5050316;28;19943;-90
2022/11/18 06:22:46;;;;;;;;;;;11.20;97.20;;;;;;5037000;28;19942;-90
2022/11/18 06:25:11;;;;;;;;;;;11.30;97.10;;;;;;5052709;28;19947;-90
2022/11/18 06:27:37;;;;;;;;;;;11.30;97.00;;;;;;5054653;28;20314;-90
2022/11/18 06:30:02;;;;;;;;;;;11.40;96.90;;;;;;5053645;28;19979;-90
2022/11/18 06:32:28;;;;;;;;;;;11.40;96.80;;;;;;5046360;28;19961;-89
2022/11/18 06:34:53;;;;;;;;;;;11.40;96.70;;;;;;5054255;28;20032;-90
2022/11/18 06:37:22;;;;;;;;;;;11.40;96.60;;;;;;5054381;28;20436;-89
2022/11/18 06:39:47;;;;;;;;;;;11.40;96.50;;;;;;5053387;28;20000;-89
2022/11/18 06:43:37;;;;;;;;;;;11.50;96.40;;;;;;5068121;28;20025;-90
2022/11/18 06:44:58;;;;;;;;;;;11.50;96.30;;;;;;5053649;28;19942;-90
2022/11/18 06:47:24;;;;;;;;;;;11.40;96.20;;;;;;5053364;28;20055;-90
2022/11/18 06:49:49;;;;;;;;;;;11.40;96.20;;;;;;5053705;28;20402;-90
2022/11/18 06:52:15;;;;;;;;;;;11.50;96.10;;;;;;5047138;28;20431;-90
2022/11/18 06:54:40;;;;;;;;;;;11.60;95.90;;;;;;5049819;28;20400;-90
2022/11/18 06:57:06;;;;;;;;;;;11.60;95.70;;;;;;5034099;28;20431;-90
2022/11/18 06:59:31;;;;;;;;;;;11.60;95.60;;;;;;5033911;28;21351;-91
2022/11/18 07:01:57;;;;;;;;;;;11.60;95.50;;;;;;5027683;28;19943;-91
2022/11/18 07:04:23;;;;;;;;;;;11.60;95.40;;;;;;5026500;28;19958;-90
2022/11/18 07:06:48;;;;;;;;;;;11.70;95.30;;;;;;5033770;28;19979;-91
2022/11/18 07:09:14;;;;;;;;;;;11.70;95.20;;;;;;5030276;28;19943;-90
2022/11/18 07:11:40;;;;;;;;;;;11.80;95.10;;;;;;5032753;28;20444;-91
2022/11/18 07:14:08;;;;;;;;;;;11.70;94.70;;;;;;5034042;28;19951;-91
2022/11/18 07:16:35;;;;;;;;;;;11.70;94.90;;;;;;5032024;28;19955;-91
2022/11/18 07:19:00;;;;;;;;;;;11.80;95.00;;;;;;5033551;28;20020;-91
2022/11/18 07:21:27;;;;;;;;;;;11.80;95.10;;;;;;5031413;28;20025;-90
2022/11/18 07:23:53;;;;;;;;;;;11.90;95.00;;;;;;5032129;28;20029;-90
2022/11/18 07:26:19;;;;;;;;;;;11.90;94.90;;;;;;5030267;28;19951;-91
2022/11/18 07:28:45;;;;;;;;;;;11.90;94.90;;;;;;5031549;28;19941;-91
2022/11/18 07:31:14;;;;;;;;;;;12.00;95.00;;;;;;5029283;28;19947;-91
2022/11/18 07:33:40;;;;;;;;;;;12.10;95.00;;;;;;5023639;28;19963;-91
2022/11/18 07:36:08;;;;;;;;;;;12.20;94.40;;;;;;5031524;28;20307;-91
2022/11/18 07:38:33;;;;;;;;;;;12.30;94.20;;;;;;5027488;28;19964;-91
2022/11/18 07:41:03;;;;;;;;;;;12.40;93.60;;;;;;5029306;28;19939;-91
2022/11/18 07:43:28;;;;;;;;;;;12.40;93.00;;;;;;5028827;28;20427;-91
2022/11/18 07:45:55;;;;;;;;;;;12.50;92.70;;;;;;5026535;28;20029;-90
2022/11/18 07:48:21;;;;;;;;;;;12.40;92.90;;;;;;5028720;28;19969;-90
2022/11/18 07:50:46;;;;;;;;;;;12.30;93.80;;;;;;5028596;28;20393;-90
2022/11/18 07:53:12;;;;;;;;;;;12.30;93.80;;;;;;5031658;28;20456;-90
2022/11/18 07:55:37;;;;;;;;;;;12.30;93.90;;;;;;5031285;28;20283;-90
2022/11/18 07:58:03;;;;;;;;;;;12.30;93.70;;;;;;5032526;28;20415;-90
2022/11/18 08:00:28;;;;;;;;;;;12.30;94.00;;;;;;5030062;28;20035;-90
2022/11/18 08:02:54;;;;;;;;;;;12.40;94.10;;;;;;5033389;28;19991;-90
2022/11/18 08:05:19;;;;;;;;;;;12.30;93.90;;;;;;5028445;28;19949;-90
2022/11/18 08:07:45;;;;;;;;;;;12.30;93.60;;;;;;5029571;28;19943;-90
2022/11/18 08:10:10;;;;;;;;;;;12.20;93.80;;;;;;5030578;28;20045;-90
2022/11/18 08:12:36;;;;;;;;;;;12.20;93.80;;;;;;5032326;28;19942;-90
2022/11/18 08:15:02;;;;;;;;;;;12.10;93.70;;;;;;5029265;28;19948;-90
2022/11/18 08:17:27;;;;;;;;;;;12.20;93.90;;;;;;5025169;28;19972;-90
2022/11/18 08:19:53;;;;;;;;;;;12.20;94.10;;;;;;5030478;28;20040;-90
2022/11/18 08:22:19;;;;;;;;;;;12.30;94.40;;;;;;5028576;28;19938;-90
2022/11/18 08:24:46;;;;;;;;;;;12.30;94.70;;;;;;5024182;28;19951;-90
2022/11/18 08:27:12;;;;;;;;;;;12.40;94.60;;;;;;5029337;28;19947;-91
2022/11/18 08:29:37;;;;;;;;;;;12.40;94.30;;;;;;5026580;28;20457;-91
2022/11/18 08:32:04;;;;;;;;;;;12.50;94.20;;;;;;5030724;28;19990;-91
2022/11/18 08:34:29;;;;;;;;;;;12.70;94.40;;;;;;5031750;28;19942;-91
2022/11/18 08:36:55;;;;;;;;;;;12.90;94.20;;;;;;5032298;28;19943;-91
2022/11/18 08:39:20;;;;;;;;;;;13.30;94.00;;;;;;5023427;28;20312;-91
2022/11/18 08:41:46;;;;;;;;;;;13.50;92.60;;;;;;5027507;28;19978;-91
2022/11/18 08:44:13;;;;;;;;;;;13.40;91.70;;;;;;5026388;28;19995;-90
2022/11/18 08:46:39;;;;;;;;;;;13.20;91.40;;;;;;5028789;28;20396;-91
2022/11/18 08:49:04;;;;;;;;;;;13.20;91.90;;;;;;5025899;28;20029;-91
2022/11/18 08:51:30;;;;;;;;;;;13.20;91.70;;;;;;5028893;28;19940;-90
2022/11/18 08:53:56;;;;;;;;;;;13.30;91.50;;;;;;5023600;28;19958;-91
2022/11/18 08:56:22;;;;;;;;;;;13.40;90.80;;;;;;5024558;28;20001;-91
2022/11/18 08:58:48;;;;;;;;;;;13.60;90.00;;;;;;5028834;28;19960;-90
2022/11/18 09:01:14;;;;;;;;;;;13.50;90.20;;;;;;5025797;28;19944;-91
2022/11/18 09:03:39;;;;;;;;;;;13.50;90.20;;;;;;5027748;28;19950;-92
2022/11/18 09:06:05;;;;;;;;;;;13.70;89.70;;;;;;5029060;28;19948;-91
2022/11/18 09:08:30;;;;;;;;;;;13.70;89.60;;;;;;5027971;28;19951;-91
2022/11/18 09:10:56;;;;;;;;;;;13.60;90.30;;;;;;5024878;28;19946;-91
2022/11/18 09:13:21;;;;;;;;;;;13.80;89.60;;;;;;5028718;28;21096;-91
2022/11/18 09:15:47;;;;;;;;;;;13.90;89.40;;;;;;5029813;28;20084;-90
2022/11/18 09:18:12;;;;;;;;;;;13.90;89.30;;;;;;5028000;28;20075;-91
2022/11/18 09:20:38;;;;;;;;;;;13.90;89.60;;;;;;5024920;28;19944;-91
2022/11/18 09:23:03;;;;;;;;;;;14.20;89.30;;;;;;5027160;28;20067;-91
2022/11/18 09:25:29;;;;;;;;;;;14.20;88.90;;;;;;5028697;28;20037;-91
2022/11/18 09:27:55;;;;;;;;;;;14.30;88.30;;;;;;5025829;28;20391;-90
2022/11/18 09:30:20;;;;;;;;;;;14.00;88.50;;;;;;5020573;28;21973;-90
2022/11/18 09:32:46;;;;;;;;;;;13.80;89.20;;;;;;5030378;28;19945;-90
2022/11/18 09:35:12;;;;;;;;;;;13.70;89.80;;;;;;5023783;28;19952;-90
2022/11/18 09:37:37;;;;;;;;;;;13.70;90.80;;;;;;5024870;28;20046;-90
2022/11/18 09:40:03;;;;;;;;;;;13.70;90.90;;;;;;5021050;28;19978;-90
2022/11/18 09:42:28;;;;;;;;;;;13.90;90.70;;;;;;5027758;28;19950;-90
2022/11/18 09:45:00;;;;;;;;;;;13.90;90.10;;;;;;5032221;28;19949;-91
2022/11/18 09:47:33;;;;;;;;;;;13.90;90.40;;;;;;5026877;28;20038;-90
2022/11/18 09:50:03;;;;;;;;;;;13.90;89.30;;;;;;5028736;28;19945;-90
2022/11/18 09:52:37;;;;;;;;;;;14.00;89.60;;;;;;5028059;28;19963;-90
2022/11/18 09:55:10;;;;;;;;;;;14.30;90.60;;;;;;5030985;28;20406;-90
2022/11/18 09:57:35;;;;;;;;;;;14.30;89.40;;;;;;5033069;28;19961;-89
2022/11/18 10:00:05;;;;;;;;;;;14.30;89.80;;;;;;5028508;28;19950;-89
2022/11/18 10:02:42;;;;;;;;;;;14.30;89.00;;;;;;5029670;28;19943;-90
2022/11/18 10:05:40;;;;;;;;;;;14.40;89.70;;;;;;5035468;28;19942;-90
2022/11/18 10:08:11;;;;;;;;;;;14.50;88.70;;;;;;5003251;28;19945;-90
2022/11/18 10:10:49;;;;;;;;;;;14.50;86.60;;;;;;5025931;28;19970;-90
2022/11/18 10:13:17;;;;;;;;;;;14.70;86.90;;;;;;5032237;28;19938;-90
2022/11/18 10:15:52;;;;;;;;;;;14.80;86.80;;;;;;5032977;28;19947;-90
2022/11/18 10:18:23;;;;;;;;;;;14.90;86.20;;;;;;5031915;28;20394;-90
2022/11/18 10:20:59;;;;;;;;;;;15.10;85.20;;;;;;5031920;28;19947;-90
2022/11/18 10:23:28;;;;;;;;;;;14.80;85.50;;;;;;5032609;28;19956;-90
2022/11/18 10:25:54;;;;;;;;;;;15.10;85.20;;;;;;5032020;28;19952;-90
2022/11/18 10:28:24;;;;;;;;;;;15.20;84.20;;;;;;5034392;28;19948;-90
2022/11/18 10:30:50;;;;;;;;;;;15.30;82.80;;;;;;5014734;28;20401;-90
2022/11/18 10:33:18;;;;;;;;;;;15.20;83.90;;;;;;5029738;28;19943;-90
2022/11/18 10:35:44;;;;;;;;;;;15.20;83.90;;;;;;5034570;28;19948;-89
2022/11/18 10:38:12;;;;;;;;;;;15.10;84.30;;;;;;5031264;28;19962;-90
2022/11/18 10:40:46;;;;;;;;;;;15.20;83.50;;;;;;5024821;28;19931;-89
2022/11/18 10:43:32;;;;;;;;;;;15.20;83.50;;;;;;5029485;28;19945;-90
2022/11/18 10:46:14;;;;;;;;;;;15.50;83.10;;;;;;5030036;28;19943;-90
2022/11/18 10:48:39;;;;;;;;;;;15.40;82.80;;;;;;5030857;28;19942;-90
2022/11/18 10:51:19;;;;;;;;;;;15.30;83.40;;;;;;5030138;28;20510;-89
2022/11/18 10:53:44;;;;;;;;;;;15.10;84.40;;;;;;5032771;28;20028;-89
2022/11/18 10:56:12;;;;;;;;;;;15.20;85.20;;;;;;5030871;28;20410;-89
2022/11/18 10:58:48;;;;;;;;;;;15.30;83.60;;;;;;5032054;28;19964;-89
2022/11/18 11:01:21;;;;;;;;;;;15.30;83.40;;;;;;5029822;28;19984;-89
2022/11/18 11:03:58;;;;;;;;;;;15.40;82.90;;;;;;5028270;28;19949;-89
2022/11/18 11:06:29;;;;;;;;;;;15.50;81.70;;;;;;5028351;28;19991;-89
2022/11/18 11:09:18;;;;;;;;;;;15.60;82.10;;;;;;5024550;28;19955;-89
2022/11/18 11:11:58;;;;;;;;;;;15.60;81.80;;;;;;5026121;28;20052;-89
2022/11/18 11:14:30;;;;;;;;;;;15.80;80.60;;;;;;5031453;28;19949;-89
2022/11/18 11:16:59;;;;;;;;;;;15.90;80.30;;;;;;5033072;28;19946;-89
2022/11/18 11:19:29;;;;;;;;;;;16.00;80.00;;;;;;5033474;28;20391;-89
2022/11/18 11:21:55;;;;;;;;;;;16.20;78.70;;;;;;5034891;28;20000;-89
2022/11/18 11:24:23;;;;;;;;;;;16.30;78.90;;;;;;5033584;28;19991;-89
2022/11/18 11:26:58;;;;;;;;;;;16.20;79.00;;;;;;5034799;28;19962;-89
2022/11/18 11:29:50;;;;;;;;;;;16.30;79.10;;;;;;5033456;28;20408;-89
2022/11/18 11:32:16;;;;;;;;;;;16.30;77.70;;;;;;5032531;28;20036;-89
2022/11/18 11:34:46;;;;;;;;;;;16.00;77.10;;;;;;5033380;28;20037;-89
2022/11/18 11:37:16;;;;;;;;;;;16.30;77.60;;;;;;5034808;28;20039;-89
2022/11/18 11:40:01;;;;;;;;;;;16.70;76.80;;;;;;5034588;28;19948;-89
2022/11/18 11:42:45;;;;;;;;;;;17.10;75.30;;;;;;5034515;28;19970;-89
2022/11/18 11:45:11;;;;;;;;;;;17.80;71.80;;;;;;5034420;28;20309;-89
2022/11/18 11:47:45;;;;;;;;;;;18.10;69.00;;;;;;5034355;28;20080;-89
2022/11/18 11:50:15;;;;;;;;;;;18.10;68.20;;;;;;5034311;28;20018;-89
2022/11/18 11:52:40;;;;;;;;;;;18.20;70.10;;;;;;5034149;28;20046;-89
2022/11/18 11:55:18;;;;;;;;;;;18.30;69.70;;;;;;5034221;28;20345;-89
2022/11/18 11:57:54;;;;;;;;;;;18.30;69.20;;;;;;5033511;28;20218;-89
2022/11/18 12:00:20;;;;;;;;;;;18.60;68.60;;;;;;5033940;28;19951;-89
2022/11/18 12:02:57;;;;;;;;;;;18.30;62.50;;;;;;5034045;28;19945;-89
2022/11/18 12:05:29;;;;;;;;;;;18.10;66.70;;;;;;5033898;28;20034;-89
2022/11/18 12:07:55;;;;;;;;;;;18.00;66.50;;;;;;5033731;28;19942;-89
2022/11/18 12:10:29;;;;;;;;;;;18.50;66.30;;;;;;5033952;28;19945;-89
2022/11/18 12:13:07;;;;;;;;;;;18.90;66.60;;;;;;5032132;28;19943;-89
2022/11/18 12:15:51;;;;;;;;;;;19.10;65.70;;;;;;5033278;28;19978;-89
2022/11/18 12:18:35;;;;;;;;;;;19.40;66.70;;;;;;5033601;28;20049;-89
2022/11/18 12:21:01;;;;;;;;;;;19.50;65.10;;;;;;5032408;28;19943;-90
2022/11/18 12:23:27;;;;;;;;;;;19.30;67.30;;;;;;5033392;28;19950;-89
2022/11/18 12:25:54;;;;;;;;;;;19.00;68.50;;;;;;5033588;28;19955;-89
2022/11/18 12:28:22;;;;;;;;;;;18.80;68.00;;;;;;5030409;28;19949;-89
2022/11/18 12:30:48;;;;;;;;;;;18.90;67.90;;;;;;5026135;28;19947;-89
2022/11/18 12:33:15;;;;;;;;;;;18.80;69.10;;;;;;5027974;28;19955;-90
2022/11/18 12:35:45;;;;;;;;;;;19.00;67.90;;;;;;5027639;28;19948;-90
2022/11/18 12:38:27;;;;;;;;;;;19.30;67.30;;;;;;5030400;28;20405;-90
2022/11/18 12:40:52;;;;;;;;;;;19.60;66.60;;;;;;5026262;28;20507;-89
2022/11/18 12:46:08;;;;;;;;;;;19.30;65.70;;;;;;5026415;28;19993;-90
2022/11/18 12:48:40;;;;;;;;;;;19.20;66.20;;;;;;5028491;28;20038;-89
2022/11/18 12:51:14;;;;;;;;;;;18.80;67.60;;;;;;5023094;28;19947;-89
2022/11/18 12:53:46;;;;;;;;;;;18.80;67.50;;;;;;5026398;28;19967;-90
2022/11/18 12:56:18;;;;;;;;;;;18.80;67.80;;;;;;5024332;28;20409;-89
2022/11/18 12:58:48;;;;;;;;;;;18.70;68.80;;;;;;5025069;28;19970;-89
2022/11/18 13:01:22;;;;;;;;;;;18.80;68.00;;;;;;5023960;28;19954;-89
2022/11/18 13:03:47;;;;;;;;;;;18.90;68.30;;;;;;5026539;28;19977;-89
2022/11/18 13:06:20;;;;;;;;;;;18.70;67.70;;;;;;5027820;28;19986;-89
2022/11/18 13:08:51;;;;;;;;;;;18.90;68.40;;;;;;5028568;28;19945;-89
2022/11/18 13:19:33;;;;;;;;;;;18.90;68.90;;;;;;5028094;28;21943;-89
2022/11/18 13:24:46;;;;;;;;;;;18.90;68.90;;;;;;5023848;28;20381;-89
2022/11/18 13:27:39;;;;;;;;;;;18.60;71.10;;;;;;5020109;28;19953;-89
2022/11/18 13:30:08;;;;;;;;;;;18.60;69.80;;;;;;5024716;28;20307;-90
2022/11/18 13:32:34;;;;;;;;;;;18.80;69.90;;;;;;5023529;28;20067;-90
2022/11/18 13:35:18;;;;;;;;;;;19.00;69.60;;;;;;5030912;28;20416;-89
2022/11/18 13:38:02;;;;;;;;;;;19.10;68.30;;;;;;5033036;28;20429;-89
2022/11/18 13:40:36;;;;;;;;;;;18.80;68.60;;;;;;5028311;28;19954;-89
2022/11/18 13:43:02;;;;;;;;;;;19.10;69.30;;;;;;5032983;28;20079;-89
2022/11/18 13:45:28;;;;;;;;;;;19.60;66.40;;;;;;5032015;28;20417;-89
2022/11/18 13:47:58;;;;;;;;;;;19.40;66.20;;;;;;5032692;28;19940;-89
2022/11/18 13:50:27;;;;;;;;;;;19.10;67.50;;;;;;5029498;28;19973;-90
2022/11/18 13:53:11;;;;;;;;;;;19.30;68.50;;;;;;5039541;23;19991;-89
2022/11/18 13:55:44;;;;;;;;;;;19.10;66.80;;;;;;5031433;28;20013;-89
2022/11/18 13:58:18;;;;;;;;;;;18.80;67.40;;;;;;5028764;28;20021;-89
2022/11/18 14:00:59;;;;;;;;;;;19.00;68.40;;;;;;5030498;28;20437;-88
2022/11/18 14:03:30;;;;;;;;;;;19.10;67.50;;;;;;5029242;28;19943;-90
2022/11/18 14:05:56;;;;;;;;;;;19.30;66.30;;;;;;5041917;28;19961;-90
2022/11/18 14:08:26;;;;;;;;;;;19.70;66.40;;;;;;5033218;28;19947;-90
2022/11/18 14:10:52;;;;;;;;;;;19.30;65.40;;;;;;5029651;28;20043;-90
2022/11/18 14:13:18;;;;;;;;;;;19.30;66.90;;;;;;5047217;28;19948;-90
2022/11/18 14:15:44;;;;;;;;;;;19.80;66.10;;;;;;5029774;28;19943;-90
2022/11/18 14:18:29;;;;;;;;;;;20.30;63.90;;;;;;5028842;28;19969;-90
2022/11/18 14:20:55;;;;;;;;;;;19.70;63.90;;;;;;5028820;28;19972;-89
2022/11/18 14:23:32;;;;;;;;;;;19.20;65.60;;;;;;5031688;28;19996;-90
2022/11/18 14:25:58;;;;;;;;;;;19.20;65.60;;;;;;5034643;28;19995;-90
2022/11/18 14:28:25;;;;;;;;;;;19.10;66.40;;;;;;5035003;28;20403;-90
2022/11/18 14:30:54;;;;;;;;;;;19.00;66.70;;;;;;5031824;28;20037;-90
2022/11/18 14:33:20;;;;;;;;;;;19.20;67.00;;;;;;5032137;28;19955;-90
2022/11/18 14:35:50;;;;;;;;;;;19.40;65.80;;;;;;5032112;28;19956;-90
2022/11/18 14:38:18;;;;;;;;;;;18.90;67.00;;;;;;5033375;28;19973;-90
2022/11/18 14:40:43;;;;;;;;;;;18.40;68.80;;;;;;5019902;28;19961;-89
2022/11/18 14:43:10;;;;;;;;;;;18.30;69.70;;;;;;5033390;28;19945;-89
2022/11/18 14:45:37;;;;;;;;;;;18.10;70.80;;;;;;5031814;28;19951;-89
2022/11/18 14:48:02;;;;;;;;;;;17.80;71.00;;;;;;5024886;28;19948;-89
2022/11/18 14:50:28;;;;;;;;;;;17.80;71.60;;;;;;5031446;28;19955;-89